Time;durP1;ratioP1;P1;durP2;ratioP2;P2;SDS_P1;SDS_P2;PMS_P1;PMS_P2;Temp;Humidity;BMP_temperature;BMP_pressure;BME280_temperature;BME280_humidity;BME280_pressure;Samples;Min_cycle;Max_cycle;Signal;HPM_P1;HPM_P2
2022/01/09 00:00:02;;;;;;;1.00;1.00;;;;;;;;;;4997946;28;20183;-82
2022/01/09 00:02:28;;;;;;;1.30;1.20;;;;;;;;;;5013835;28;20386;-82
2022/01/09 00:04:54;;;;;;;0.90;0.90;;;;;;;;;;4997745;28;20229;-82
2022/01/09 00:07:20;;;;;;;1.10;1.00;;;;;;;;;;4997754;28;20669;-82
2022/01/09 00:09:46;;;;;;;0.83;0.83;;;;;;;;;;4997745;28;20199;-82
2022/01/09 00:12:12;;;;;;;2.33;1.10;;;;;;;;;;5013772;28;20261;-82
2022/01/09 00:14:38;;;;;;;1.00;1.00;;;;;;;;;;5013536;28;20177;-82
2022/01/09 00:17:04;;;;;;;0.90;0.90;;;;;;;;;;4997576;28;20186;-82
2022/01/09 00:19:30;;;;;;;1.43;0.80;;;;;;;;;;5013495;28;20205;-81
2022/01/09 00:21:56;;;;;;;1.00;0.90;;;;;;;;;;4997890;28;20277;-81
2022/01/09 00:24:23;;;;;;;0.93;0.90;;;;;;;;;;4997121;28;20261;-81
2022/01/09 00:26:49;;;;;;;0.83;0.83;;;;;;;;;;5012787;28;20590;-81
2022/01/09 00:29:15;;;;;;;0.90;0.90;;;;;;;;;;5013192;28;20744;-81
2022/01/09 00:31:41;;;;;;;1.23;0.77;;;;;;;;;;5013499;28;20622;-81
2022/01/09 00:34:07;;;;;;;1.10;1.00;;;;;;;;;;5013354;28;20538;-82
2022/01/09 00:36:33;;;;;;;0.70;0.70;;;;;;;;;;4997375;28;20233;-81
2022/01/09 00:38:59;;;;;;;0.87;0.87;;;;;;;;;;4997207;28;20202;-81
2022/01/09 00:41:25;;;;;;;1.03;0.93;;;;;;;;;;5013320;28;20183;-82
2022/01/09 00:43:51;;;;;;;1.47;0.80;;;;;;;;;;4997047;28;20194;-81
2022/01/09 00:46:17;;;;;;;0.70;0.70;;;;;;;;;;4997383;28;20179;-81
2022/01/09 00:48:44;;;;;;;0.70;0.70;;;;;;;;;;4997203;28;20211;-81
2022/01/09 00:51:10;;;;;;;0.77;0.63;;;;;;;;;;5013092;28;20602;-81
2022/01/09 00:53:36;;;;;;;0.57;0.57;;;;;;;;;;4996843;28;20179;-81
2022/01/09 00:56:02;;;;;;;0.80;0.80;;;;;;;;;;5013254;28;20626;-81
2022/01/09 00:58:28;;;;;;;0.90;0.90;;;;;;;;;;5013214;28;20262;-81
2022/01/09 01:00:54;;;;;;;0.70;0.70;;;;;;;;;;4996866;28;20191;-81
2022/01/09 01:03:21;;;;;;;0.60;0.60;;;;;;;;;;4996718;28;20195;-81
2022/01/09 01:05:47;;;;;;;0.67;0.60;;;;;;;;;;5013134;28;20191;-81
2022/01/09 01:08:13;;;;;;;1.00;0.90;;;;;;;;;;4996385;28;20214;-81
2022/01/09 01:10:39;;;;;;;0.77;0.77;;;;;;;;;;4996703;28;20209;-82
2022/01/09 01:13:05;;;;;;;0.60;0.60;;;;;;;;;;4996343;28;20270;-81
2022/01/09 01:15:31;;;;;;;0.53;0.53;;;;;;;;;;4996625;28;20207;-81
2022/01/09 01:17:57;;;;;;;0.60;0.60;;;;;;;;;;4996478;28;20233;-81
2022/01/09 01:20:23;;;;;;;0.67;0.67;;;;;;;;;;5012534;28;20186;-81
2022/01/09 01:22:52;;;;;;;1.13;0.80;;;;;;;;;;4996655;28;20180;-81
2022/01/09 01:25:19;;;;;;;1.30;0.70;;;;;;;;;;4996016;28;20665;-81
2022/01/09 01:27:45;;;;;;;0.60;0.60;;;;;;;;;;5011843;28;20665;-81
2022/01/09 15:11:35;;;;;;;5.63;2.90;;;;;;;;;;4936266;29;20254;-78
2022/01/09 15:14:02;;;;;;;4.83;2.90;;;;;;;;;;4920702;29;20185;-78
2022/01/09 15:16:28;;;;;;;5.00;2.50;;;;;;;;;;4921059;29;20270;-78
2022/01/09 15:18:54;;;;;;;9.87;2.73;;;;;;;;;;4900607;29;20298;-78
2022/01/09 15:21:21;;;;;;;5.03;2.60;;;;;;;;;;4954445;23;20218;-81
2022/01/09 15:23:47;;;;;;;4.83;2.87;;;;;;;;;;4944877;29;20605;-81
2022/01/09 15:26:17;;;;;;;8.37;3.00;;;;;;;;;;4945186;29;20179;-81
2022/01/09 15:28:43;;;;;;;5.50;3.13;;;;;;;;;;4944422;29;20211;-81
2022/01/09 15:31:09;;;;;;;6.90;3.67;;;;;;;;;;4928612;29;20597;-83
2022/01/09 15:33:36;;;;;;;6.90;3.50;;;;;;;;;;4922143;29;20189;-83
2022/01/09 15:36:02;;;;;;;5.93;3.13;;;;;;;;;;4936982;29;20233;-83
2022/01/09 15:38:28;;;;;;;4.47;2.53;;;;;;;;;;4937252;29;20184;-83
2022/01/09 15:40:54;;;;;;;6.77;3.20;;;;;;;;;;4921348;29;20210;-83
2022/01/09 15:43:20;;;;;;;7.30;3.00;;;;;;;;;;4921363;29;20195;-83
2022/01/09 15:45:48;;;;;;;5.33;2.87;;;;;;;;;;4920728;29;20186;-83
2022/01/09 15:48:14;;;;;;;6.20;3.33;;;;;;;;;;4920813;29;20706;-83
2022/01/09 15:50:40;;;;;;;4.53;3.40;;;;;;;;;;4920330;29;20206;-83
2022/01/09 15:53:06;;;;;;;5.43;3.43;;;;;;;;;;4936198;29;20179;-83
2022/01/09 15:55:32;;;;;;;7.83;3.10;;;;;;;;;;4935787;29;20277;-83
2022/01/09 15:57:59;;;;;;;6.13;2.80;;;;;;;;;;4919684;29;20239;-83
2022/01/09 16:00:25;;;;;;;6.63;2.70;;;;;;;;;;4920383;29;20201;-83
2022/01/09 16:02:52;;;;;;;6.20;2.57;;;;;;;;;;4920273;29;20188;-83
2022/01/09 16:05:18;;;;;;;4.43;2.53;;;;;;;;;;4935739;29;20185;-83
2022/01/09 16:07:44;;;;;;;6.83;3.03;;;;;;;;;;4935994;29;20212;-83
2022/01/09 16:10:10;;;;;;;7.70;2.60;;;;;;;;;;4937526;29;20183;-78
2022/01/09 16:12:39;;;;;;;4.23;2.50;;;;;;;;;;4937901;29;20327;-78
2022/01/09 16:15:06;;;;;;;7.57;3.30;;;;;;;;;;4937225;29;20179;-78
2022/01/09 16:17:32;;;;;;;6.10;2.93;;;;;;;;;;4937743;29;20178;-78
2022/01/09 16:19:58;;;;;;;6.33;2.80;;;;;;;;;;4937550;29;20594;-78
2022/01/09 16:22:24;;;;;;;7.53;3.03;;;;;;;;;;4937488;29;20225;-78
2022/01/09 16:24:51;;;;;;;3.47;2.50;;;;;;;;;;4921968;29;20183;-78
2022/01/09 16:27:18;;;;;;;4.57;2.60;;;;;;;;;;4937769;29;20182;-78
2022/01/09 16:29:45;;;;;;;4.80;2.57;;;;;;;;;;4937105;29;20218;-78
2022/01/09 16:32:12;;;;;;;5.33;2.97;;;;;;;;;;4937436;29;20199;-78
2022/01/09 16:34:38;;;;;;;3.47;2.90;;;;;;;;;;4937080;29;20265;-78
2022/01/09 16:37:04;;;;;;;4.93;3.10;;;;;;;;;;4921220;29;20182;-78
2022/01/09 16:39:31;;;;;;;6.20;2.87;;;;;;;;;;4937586;29;20180;-78
2022/01/09 16:41:57;;;;;;;5.37;3.20;;;;;;;;;;4921540;29;20264;-78
2022/01/09 16:44:23;;;;;;;7.17;3.00;;;;;;;;;;4921589;29;20194;-78
2022/01/09 16:46:49;;;;;;;6.67;3.20;;;;;;;;;;4924691;29;20206;-78
2022/01/09 16:49:15;;;;;;;7.50;3.97;;;;;;;;;;4937640;29;20216;-78
2022/01/09 16:51:42;;;;;;;6.10;3.20;;;;;;;;;;4937271;29;20589;-78
2022/01/09 16:54:08;;;;;;;5.80;3.10;;;;;;;;;;4936952;29;20529;-78
2022/01/09 16:56:35;;;;;;;7.00;3.10;;;;;;;;;;4938331;29;20200;-79
2022/01/09 16:59:02;;;;;;;5.90;2.77;;;;;;;;;;4937177;29;20674;-78
2022/01/09 17:01:28;;;;;;;5.83;3.00;;;;;;;;;;4946690;29;20229;-78
2022/01/09 17:03:59;;;;;;;5.27;3.00;;;;;;;;;;4921653;29;20203;-78
2022/01/09 17:06:26;;;;;;;6.90;2.93;;;;;;;;;;4922236;29;20188;-78
2022/01/09 17:08:52;;;;;;;6.13;2.97;;;;;;;;;;4921124;29;20239;-79
2022/01/09 17:11:20;;;;;;;4.90;3.07;;;;;;;;;;4937173;29;20200;-78
2022/01/09 17:13:47;;;;;;;6.83;4.53;;;;;;;;;;4937631;29;20199;-78
2022/01/09 17:16:13;;;;;;;5.50;4.37;;;;;;;;;;4936944;29;20180;-78
2022/01/09 17:18:39;;;;;;;5.73;3.80;;;;;;;;;;4937002;29;20180;-82
2022/01/09 17:21:06;;;;;;;4.73;3.63;;;;;;;;;;4938710;29;20221;-82
2022/01/09 17:23:32;;;;;;;6.47;3.17;;;;;;;;;;4937818;29;20182;-84
2022/01/09 17:25:58;;;;;;;6.60;3.97;;;;;;;;;;4922582;29;20291;-83
2022/01/09 17:28:25;;;;;;;6.83;3.33;;;;;;;;;;4939359;29;20207;-82
2022/01/09 17:30:51;;;;;;;4.63;3.27;;;;;;;;;;4937776;29;20200;-79
2022/01/09 17:33:17;;;;;;;6.47;4.13;;;;;;;;;;4935837;29;20529;-79
2022/01/09 17:35:43;;;;;;;6.03;3.50;;;;;;;;;;4920908;29;20181;-79
2022/01/09 17:38:10;;;;;;;6.93;3.40;;;;;;;;;;4936440;29;20263;-79
2022/01/09 17:40:36;;;;;;;5.00;3.07;;;;;;;;;;4936446;29;20182;-79
2022/01/09 17:43:03;;;;;;;4.20;3.13;;;;;;;;;;4936486;29;20545;-79
2022/01/09 17:45:29;;;;;;;6.00;3.30;;;;;;;;;;4920467;29;20220;-82
2022/01/09 17:47:57;;;;;;;8.37;4.53;;;;;;;;;;4936769;29;20546;-78
2022/01/09 17:50:23;;;;;;;4.53;3.50;;;;;;;;;;4922345;29;20191;-86
2022/01/09 17:52:49;;;;;;;7.03;4.33;;;;;;;;;;4901377;29;20209;-80
2022/01/09 17:55:15;;;;;;;6.40;3.70;;;;;;;;;;4900960;29;20195;-83
2022/01/09 17:57:41;;;;;;;5.50;3.53;;;;;;;;;;4901303;29;20183;-83
2022/01/09 18:00:09;;;;;;;6.23;3.40;;;;;;;;;;4901017;29;20655;-84
2022/01/09 18:02:35;;;;;;;5.40;3.57;;;;;;;;;;4916833;29;20218;-83
2022/01/09 18:05:01;;;;;;;7.73;3.47;;;;;;;;;;4916657;29;20578;-83
2022/01/09 18:07:27;;;;;;;5.97;4.43;;;;;;;;;;4901253;29;20236;-83
2022/01/09 18:09:53;;;;;;;7.23;3.60;;;;;;;;;;4901490;29;20184;-81
2022/01/09 18:12:19;;;;;;;5.90;3.53;;;;;;;;;;4901088;29;20261;-83
2022/01/09 18:14:47;;;;;;;6.97;4.17;;;;;;;;;;4900644;29;20200;-83
2022/01/09 18:17:13;;;;;;;5.37;3.20;;;;;;;;;;4916320;29;20208;-82
2022/01/09 18:19:39;;;;;;;6.37;3.33;;;;;;;;;;4901763;29;20185;-82
2022/01/09 18:22:06;;;;;;;5.57;3.30;;;;;;;;;;4919621;29;20227;-81
2022/01/09 18:24:32;;;;;;;4.70;3.13;;;;;;;;;;4920007;29;20609;-81
2022/01/09 18:26:58;;;;;;;5.53;3.73;;;;;;;;;;4903457;29;20191;-80
2022/01/09 18:29:24;;;;;;;7.20;3.30;;;;;;;;;;4919091;29;20736;-77
2022/01/09 18:31:50;;;;;;;5.07;2.83;;;;;;;;;;4918986;29;20205;-78
2022/01/09 18:34:16;;;;;;;3.60;2.90;;;;;;;;;;4918780;29;20272;-78
2022/01/09 18:36:43;;;;;;;3.93;2.70;;;;;;;;;;4918776;29;20181;-77
2022/01/09 18:39:14;;;;;;;4.20;2.97;;;;;;;;;;4918787;29;20182;-77
2022/01/09 18:41:41;;;;;;;5.70;3.27;;;;;;;;;;4918785;29;20260;-77
2022/01/09 18:44:07;;;;;;;3.73;2.90;;;;;;;;;;4918597;29;20198;-77
2022/01/09 18:46:33;;;;;;;3.83;2.53;;;;;;;;;;4902926;29;20189;-77
2022/01/09 18:48:59;;;;;;;3.40;2.70;;;;;;;;;;4903003;29;20209;-77
2022/01/09 18:51:25;;;;;;;5.63;2.63;;;;;;;;;;4918663;29;20583;-77
2022/01/09 18:53:51;;;;;;;5.00;2.70;;;;;;;;;;4918334;29;20181;-77
2022/01/09 18:56:17;;;;;;;5.30;2.90;;;;;;;;;;4918563;29;20240;-77
2022/01/09 18:58:44;;;;;;;4.10;2.63;;;;;;;;;;4902908;29;20188;-77
2022/01/09 19:01:10;;;;;;;4.20;2.70;;;;;;;;;;4917976;29;20205;-77
2022/01/09 19:03:36;;;;;;;3.40;2.83;;;;;;;;;;4902521;29;20195;-77
2022/01/09 19:06:02;;;;;;;2.87;2.40;;;;;;;;;;4902779;29;20193;-77
2022/01/09 19:08:29;;;;;;;5.10;2.73;;;;;;;;;;4918367;29;20207;-77
2022/01/09 19:10:55;;;;;;;3.93;2.93;;;;;;;;;;4918251;29;20754;-77
2022/01/09 19:13:22;;;;;;;4.67;2.80;;;;;;;;;;4902512;29;20185;-77
2022/01/09 19:15:48;;;;;;;5.33;2.87;;;;;;;;;;4918153;29;20209;-77
2022/01/09 19:18:15;;;;;;;6.73;3.00;;;;;;;;;;4902490;29;20664;-77
2022/01/09 19:20:41;;;;;;;5.33;3.40;;;;;;;;;;4902315;29;20231;-77
2022/01/09 19:23:07;;;;;;;6.10;3.60;;;;;;;;;;4918141;29;20223;-77
2022/01/09 19:25:34;;;;;;;5.17;3.20;;;;;;;;;;4902302;29;20221;-77
2022/01/09 19:28:00;;;;;;;4.63;3.43;;;;;;;;;;4917748;29;20234;-77
2022/01/09 19:30:27;;;;;;;7.63;4.63;;;;;;;;;;4917417;29;20172;-77
2022/01/09 19:32:53;;;;;;;9.40;6.37;;;;;;;;;;4901913;29;20185;-77
2022/01/09 19:35:19;;;;;;;7.47;4.10;;;;;;;;;;4901961;29;20189;-77
2022/01/09 19:37:45;;;;;;;5.53;4.03;;;;;;;;;;4917708;29;20190;-77
2022/01/09 19:40:11;;;;;;;5.70;3.50;;;;;;;;;;4902137;29;20191;-77
2022/01/09 19:42:37;;;;;;;8.17;4.00;;;;;;;;;;4901819;29;20208;-77
2022/01/09 19:45:04;;;;;;;6.97;4.37;;;;;;;;;;4901597;29;20189;-77
2022/01/09 19:47:30;;;;;;;6.73;3.83;;;;;;;;;;4917458;29;20197;-77
2022/01/09 19:49:57;;;;;;;8.33;3.40;;;;;;;;;;4917238;29;20600;-78
2022/01/09 19:52:23;;;;;;;7.23;3.50;;;;;;;;;;4901732;29;20203;-77
2022/01/09 19:54:49;;;;;;;4.90;4.00;;;;;;;;;;4901713;29;20186;-77
2022/01/09 19:57:17;;;;;;;5.73;3.27;;;;;;;;;;4917483;29;20180;-81
2022/01/09 19:59:43;;;;;;;4.90;3.10;;;;;;;;;;4902009;29;20181;-77
2022/01/09 20:02:11;;;;;;;4.73;3.17;;;;;;;;;;4917350;29;20207;-77
2022/01/09 20:04:37;;;;;;;5.83;3.23;;;;;;;;;;4917128;29;20177;-77
2022/01/09 20:07:03;;;;;;;3.97;2.80;;;;;;;;;;4917267;29;20671;-77
2022/01/09 20:09:29;;;;;;;5.73;3.30;;;;;;;;;;4917164;29;20212;-77
2022/01/09 20:11:55;;;;;;;7.43;3.13;;;;;;;;;;4901426;29;20215;-77
2022/01/09 20:14:22;;;;;;;3.90;2.67;;;;;;;;;;4916691;29;20190;-77
2022/01/09 20:16:48;;;;;;;5.67;3.10;;;;;;;;;;4901278;29;20193;-77
2022/01/09 20:19:16;;;;;;;4.93;3.20;;;;;;;;;;4916993;29;20279;-77
2022/01/09 20:21:43;;;;;;;4.73;2.93;;;;;;;;;;4901059;29;20224;-77
2022/01/09 20:24:09;;;;;;;4.17;3.17;;;;;;;;;;4916764;29;20211;-77
2022/01/09 20:26:36;;;;;;;5.47;3.00;;;;;;;;;;4916995;29;20192;-77
2022/01/09 20:29:03;;;;;;;4.27;2.80;;;;;;;;;;4916658;29;20209;-77
2022/01/09 20:31:30;;;;;;;5.90;3.00;;;;;;;;;;4916803;29;20202;-77
2022/01/09 20:33:56;;;;;;;6.07;3.60;;;;;;;;;;4901071;29;20196;-77
2022/01/09 20:36:24;;;;;;;5.93;3.17;;;;;;;;;;4916681;29;20185;-77
2022/01/09 20:38:50;;;;;;;8.17;3.43;;;;;;;;;;4901305;29;20308;-77
2022/01/09 20:41:16;;;;;;;4.50;2.77;;;;;;;;;;4900960;29;20779;-77
2022/01/09 20:43:42;;;;;;;4.50;2.80;;;;;;;;;;4900099;29;20193;-77
2022/01/09 20:46:10;;;;;;;5.87;3.33;;;;;;;;;;4916637;29;20184;-77
2022/01/09 20:48:36;;;;;;;5.10;2.80;;;;;;;;;;4916541;29;20204;-77
2022/01/09 20:51:02;;;;;;;6.73;3.20;;;;;;;;;;4916421;29;20204;-77
2022/01/09 20:53:28;;;;;;;6.97;3.30;;;;;;;;;;4900615;29;20183;-77
2022/01/09 20:55:55;;;;;;;5.83;3.07;;;;;;;;;;4916376;29;20204;-77
2022/01/09 20:58:21;;;;;;;9.17;2.90;;;;;;;;;;4916278;29;20193;-77
2022/01/09 21:00:50;;;;;;;5.80;2.93;;;;;;;;;;4916245;29;20213;-77
2022/01/09 21:03:16;;;;;;;3.70;2.67;;;;;;;;;;4916321;29;20192;-78
2022/01/09 21:05:43;;;;;;;3.80;2.80;;;;;;;;;;4900662;29;20632;-77
2022/01/09 21:08:10;;;;;;;4.83;3.17;;;;;;;;;;4900084;29;20216;-77
2022/01/09 21:10:37;;;;;;;6.77;3.00;;;;;;;;;;4899472;29;20255;-78
2022/01/09 21:13:03;;;;;;;3.60;2.67;;;;;;;;;;4915338;29;20269;-77
2022/01/09 21:15:30;;;;;;;7.07;3.50;;;;;;;;;;4914464;29;20769;-77
2022/01/09 21:17:56;;;;;;;4.67;3.10;;;;;;;;;;4914949;29;20191;-77
2022/01/09 21:20:23;;;;;;;5.17;2.80;;;;;;;;;;4915325;29;20187;-78
